createdAt,value
2023-08-23T00:01:23.172Z,63.71
2023-08-23T00:03:48.358Z,63.80
2023-08-23T00:06:17.560Z,63.84
2023-08-23T00:08:46.426Z,63.91
2023-08-23T00:11:15.068Z,64.13
2023-08-23T00:13:45.098Z,64.31
2023-08-23T00:16:13.854Z,64.52
2023-08-23T00:18:43.503Z,64.70
2023-08-23T00:21:12.347Z,64.75
2023-08-23T00:23:41.833Z,64.85
2023-08-23T00:26:13.330Z,64.94
2023-08-23T00:28:43.053Z,64.99
2023-08-23T00:31:12.751Z,65.17
2023-08-23T00:33:42.847Z,65.15
2023-08-23T00:36:11.822Z,64.89
2023-08-23T00:38:41.133Z,64.62
2023-08-23T00:41:10.669Z,64.47
2023-08-23T00:43:39.369Z,64.26
2023-08-23T00:46:09.211Z,64.18
2023-08-23T00:48:38.790Z,64.04
2023-08-23T00:51:09.398Z,63.98
2023-08-23T00:53:38.817Z,64.15
2023-08-23T00:56:08.446Z,64.49
2023-08-23T00:58:38.628Z,64.97
2023-08-23T01:01:07.820Z,65.27
2023-08-23T01:03:36.953Z,65.43
2023-08-23T01:06:32.440Z,65.56
2023-08-23T01:09:44.638Z,65.72
2023-08-23T01:12:37.125Z,66.01
2023-08-23T01:15:12.315Z,66.30
2023-08-23T01:17:44.670Z,66.37
2023-08-23T01:20:13.827Z,66.27
2023-08-23T01:22:54.768Z,66.36
2023-08-23T01:25:23.445Z,66.42
2023-08-23T01:27:56.937Z,66.66
2023-08-23T01:30:26.329Z,66.75
2023-08-23T01:33:03.727Z,66.78
2023-08-23T01:35:38.709Z,66.92
2023-08-23T01:38:08.127Z,67.06
2023-08-23T01:40:37.804Z,67.18
2023-08-23T01:43:06.524Z,67.28
2023-08-23T01:45:35.485Z,67.41
2023-08-23T01:48:05.991Z,67.62
2023-08-23T01:50:35.640Z,67.89
2023-08-23T01:53:05.550Z,67.90
2023-08-23T01:55:35.065Z,67.90
2023-08-23T01:58:05.649Z,67.70
2023-08-23T02:00:34.722Z,67.35
2023-08-23T02:03:06.249Z,66.88
2023-08-23T02:05:35.161Z,66.57
2023-08-23T02:08:04.372Z,66.17
2023-08-23T02:10:34.866Z,66.02
2023-08-23T02:13:06.222Z,66.01
2023-08-23T02:15:35.440Z,65.98
2023-08-23T02:18:06.323Z,65.95
2023-08-23T02:20:36.181Z,66.17
2023-08-23T02:23:05.794Z,66.15
2023-08-23T02:25:34.948Z,66.12
2023-08-23T02:28:05.577Z,65.85
2023-08-23T02:30:34.232Z,65.62
2023-08-23T02:33:04.738Z,65.51
2023-08-23T02:35:34.391Z,65.43
2023-08-23T02:38:03.282Z,65.33
2023-08-23T02:40:33.284Z,65.26
2023-08-23T02:43:03.597Z,65.29
2023-08-23T02:45:34.478Z,65.58
2023-08-23T02:48:05.012Z,65.89
2023-08-23T02:50:34.282Z,65.85
2023-08-23T02:53:03.465Z,65.63
2023-08-23T02:55:37.756Z,65.66
2023-08-23T02:58:07.854Z,65.72
2023-08-23T03:00:37.597Z,65.83
2023-08-23T03:03:06.965Z,66.12
2023-08-23T03:05:36.182Z,66.41
2023-08-23T03:08:05.403Z,66.61
2023-08-23T03:10:35.191Z,66.66
2023-08-23T03:13:05.844Z,66.69
2023-08-23T03:15:35.499Z,66.62
2023-08-23T03:18:05.266Z,66.43
2023-08-23T03:20:35.315Z,66.28
2023-08-23T03:23:06.775Z,66.17
2023-08-23T03:25:36.302Z,66.09
2023-08-23T03:28:05.814Z,66.03
2023-08-23T03:30:34.574Z,65.89
2023-08-23T03:33:04.085Z,65.68
2023-08-23T03:35:34.016Z,65.49
2023-08-23T03:38:04.318Z,65.47
2023-08-23T03:40:40.485Z,65.61
2023-08-23T03:43:10.060Z,65.59
2023-08-23T03:45:49.878Z,65.72
2023-08-23T03:48:24.593Z,66.00
2023-08-23T03:50:53.869Z,66.41
2023-08-23T03:53:24.521Z,66.71
2023-08-23T03:55:55.688Z,66.85
2023-08-23T03:58:25.011Z,66.63
2023-08-23T04:00:54.813Z,66.26
2023-08-23T04:03:25.926Z,65.95
2023-08-23T04:05:54.913Z,65.88
2023-08-23T04:08:24.233Z,65.60
2023-08-23T04:10:53.636Z,65.54
2023-08-23T04:13:24.151Z,65.49
2023-08-23T04:15:53.415Z,65.39
2023-08-23T04:18:22.700Z,65.31
2023-08-23T04:21:01.457Z,65.27
2023-08-23T04:23:31.320Z,65.48
2023-08-23T04:26:00.898Z,65.50
2023-08-23T04:28:30.411Z,65.15
2023-08-23T04:31:04.014Z,64.64
2023-08-23T04:33:37.053Z,63.86
2023-08-23T04:36:07.035Z,63.07
2023-08-23T04:38:35.897Z,62.43
2023-08-23T04:41:05.798Z,61.47
2023-08-23T04:43:36.511Z,61.07
2023-08-23T04:46:07.989Z,60.54
2023-08-23T04:48:37.818Z,59.98
2023-08-23T04:51:10.398Z,59.56
2023-08-23T04:53:39.756Z,59.14
2023-08-23T04:56:09.410Z,58.79
2023-08-23T04:58:39.629Z,58.71
2023-08-23T05:01:09.177Z,58.12
2023-08-23T05:03:40.028Z,57.65
2023-08-23T05:06:10.330Z,57.53
2023-08-23T05:08:40.549Z,57.64
2023-08-23T05:11:15.213Z,57.51
2023-08-23T05:13:44.872Z,57.11
2023-08-23T05:16:14.295Z,56.89
2023-08-23T05:18:43.874Z,56.39
2023-08-23T05:21:35.322Z,56.45
2023-08-23T05:24:05.046Z,56.26
2023-08-23T05:26:35.322Z,56.11
2023-08-23T05:29:04.547Z,55.56
2023-08-23T05:31:35.127Z,55.30
2023-08-23T05:34:04.398Z,55.30
2023-08-23T05:36:34.361Z,54.86
2023-08-23T05:39:04.433Z,54.67
2023-08-23T05:41:33.739Z,54.42
2023-08-23T05:44:03.042Z,54.01
2023-08-23T05:46:32.413Z,53.78
2023-08-23T05:49:03.122Z,53.64
2023-08-23T05:51:33.191Z,53.36
2023-08-23T05:54:04.069Z,53.10
2023-08-23T05:56:33.366Z,52.71
2023-08-23T05:59:02.869Z,52.67
2023-08-23T06:01:32.316Z,52.29
2023-08-23T06:04:01.774Z,52.02
2023-08-23T06:06:31.800Z,51.58
2023-08-23T06:09:04.067Z,51.53
2023-08-23T06:11:33.810Z,51.21
2023-08-23T06:14:22.039Z,51.04
2023-08-23T06:16:52.619Z,50.79
2023-08-23T06:19:22.445Z,50.22
2023-08-23T06:21:51.702Z,49.99
2023-08-23T06:24:21.540Z,49.72
2023-08-23T06:26:51.471Z,49.57
2023-08-23T06:29:21.702Z,49.46
2023-08-23T06:31:51.725Z,49.44
2023-08-23T06:34:22.563Z,49.17
2023-08-23T06:36:52.144Z,48.85
2023-08-23T06:39:32.757Z,48.64
2023-08-23T06:41:54.283Z,48.76
2023-08-23T06:44:23.876Z,49.09
2023-08-23T06:46:52.881Z,48.46
2023-08-23T06:49:22.709Z,48.20
2023-08-23T06:51:52.202Z,47.94
2023-08-23T06:54:22.398Z,48.10
2023-08-23T06:56:50.929Z,48.17
2023-08-23T06:59:21.457Z,47.52
2023-08-23T07:01:50.391Z,46.90
2023-08-23T07:04:20.567Z,46.46
2023-08-23T07:06:49.364Z,46.02
2023-08-23T07:09:18.513Z,45.04
2023-08-23T07:11:48.717Z,43.74
2023-08-23T07:14:17.642Z,42.68
2023-08-23T07:16:46.263Z,41.08
2023-08-23T07:19:15.515Z,40.54
2023-08-23T07:21:45.031Z,39.51
2023-08-23T07:24:14.746Z,38.56
2023-08-23T07:26:45.462Z,37.59
2023-08-23T07:29:16.160Z,37.33
2023-08-23T07:31:46.688Z,37.02
2023-08-23T07:34:17.345Z,36.25
2023-08-23T07:36:46.266Z,36.25
2023-08-23T07:39:16.351Z,35.84
2023-08-23T07:41:46.462Z,35.43
2023-08-23T07:44:15.171Z,35.36
2023-08-23T07:46:44.513Z,34.76
2023-08-23T07:49:15.653Z,34.63
2023-08-23T07:51:45.255Z,34.66
2023-08-23T07:54:15.014Z,34.52
2023-08-23T07:56:45.074Z,34.80
2023-08-23T07:59:14.497Z,34.83
2023-08-23T08:01:44.642Z,34.46
2023-08-23T08:04:14.890Z,33.86
2023-08-23T08:06:44.424Z,33.55
2023-08-23T08:09:14.802Z,33.84
2023-08-23T08:11:44.683Z,34.31
2023-08-23T08:14:15.209Z,34.43
2023-08-23T08:16:45.935Z,34.35
2023-08-23T08:19:14.652Z,34.58
2023-08-23T08:21:45.699Z,34.20
2023-08-23T08:24:15.785Z,34.31
2023-08-23T08:26:44.447Z,35.63
2023-08-23T08:29:14.006Z,35.50
2023-08-23T08:31:42.694Z,36.09
2023-08-23T08:34:11.267Z,35.85
2023-08-23T08:36:41.517Z,35.83
2023-08-23T08:39:10.401Z,34.85
2023-08-23T08:41:41.807Z,34.97
2023-08-23T08:44:12.334Z,34.79
2023-08-23T08:46:43.019Z,34.30
2023-08-23T08:49:12.514Z,33.49
2023-08-23T08:51:42.852Z,32.61
2023-08-23T08:54:12.123Z,32.96
2023-08-23T08:56:41.311Z,33.54
2023-08-23T08:59:11.096Z,33.21
2023-08-23T09:01:40.113Z,32.72
2023-08-23T09:04:09.262Z,33.12
2023-08-23T09:06:38.358Z,33.39
2023-08-23T09:09:08.403Z,33.86
2023-08-23T09:11:37.824Z,34.35
2023-08-23T09:14:21.623Z,34.49
2023-08-23T09:16:50.477Z,34.50
2023-08-23T09:19:20.273Z,34.49
2023-08-23T09:21:52.317Z,34.59
2023-08-23T09:24:22.219Z,34.97
2023-08-23T09:26:50.980Z,34.97
2023-08-23T09:29:20.602Z,35.50
2023-08-23T09:31:49.740Z,35.42
2023-08-23T09:34:18.977Z,35.71
2023-08-23T09:36:48.514Z,36.10
2023-08-23T09:39:19.219Z,35.88
2023-08-23T09:42:00.724Z,35.66
2023-08-23T09:44:21.137Z,35.80
2023-08-23T09:46:50.319Z,35.54
2023-08-23T09:49:19.114Z,35.24
2023-08-23T09:51:49.255Z,35.59
2023-08-23T09:54:45.920Z,35.44
2023-08-23T09:57:09.206Z,35.39
2023-08-23T09:59:38.947Z,35.84
2023-08-23T10:02:07.682Z,35.17
2023-08-23T10:04:39.120Z,35.04
2023-08-23T10:07:09.090Z,35.26
2023-08-23T10:09:38.297Z,35.13
2023-08-23T10:12:09.235Z,34.92
2023-08-23T10:14:50.343Z,34.85
2023-08-23T10:17:20.976Z,34.94
2023-08-23T10:19:50.906Z,34.80
2023-08-23T10:22:20.687Z,34.88
2023-08-23T10:24:51.099Z,34.99
2023-08-23T10:27:21.476Z,35.10
2023-08-23T10:29:51.889Z,35.21
2023-08-23T10:32:21.138Z,34.59
2023-08-23T10:34:50.956Z,34.46
2023-08-23T10:37:26.365Z,34.42
2023-08-23T10:40:02.778Z,34.83
2023-08-23T10:42:32.633Z,34.34
2023-08-23T10:45:05.380Z,34.54
2023-08-23T10:47:38.257Z,34.63
2023-08-23T10:50:08.485Z,34.82
2023-08-23T10:52:38.747Z,34.61
2023-08-23T10:55:08.895Z,34.63
2023-08-23T10:57:37.836Z,34.64
2023-08-23T11:00:08.482Z,34.59
2023-08-23T11:02:38.394Z,35.22
2023-08-23T11:05:09.010Z,35.58
2023-08-23T11:07:38.154Z,35.04
2023-08-23T11:10:10.344Z,34.78
2023-08-23T11:12:39.903Z,34.50
2023-08-23T11:15:09.897Z,34.22
2023-08-23T11:17:39.886Z,34.36
2023-08-23T11:20:11.268Z,34.41
2023-08-23T11:22:41.180Z,34.52
2023-08-23T11:25:10.768Z,34.49
2023-08-23T11:27:40.220Z,34.34
2023-08-23T11:30:11.357Z,34.62
2023-08-23T11:32:39.891Z,34.04
2023-08-23T11:35:09.995Z,34.42
2023-08-23T11:37:38.615Z,34.00
2023-08-23T11:40:10.951Z,34.00
2023-08-23T11:42:40.755Z,33.86
2023-08-23T11:45:11.625Z,34.04
2023-08-23T11:47:41.575Z,34.23
2023-08-23T11:50:11.743Z,34.18
2023-08-23T11:52:42.259Z,33.91
2023-08-23T11:55:11.715Z,34.13
2023-08-23T11:57:40.354Z,33.90
2023-08-23T12:00:11.292Z,33.81
2023-08-23T12:02:40.866Z,33.66
2023-08-23T12:05:14.649Z,33.77
2023-08-23T12:07:44.879Z,33.88
2023-08-23T12:10:13.837Z,33.33
2023-08-23T12:12:43.243Z,33.52
2023-08-23T12:15:12.367Z,33.09
2023-08-23T12:17:42.520Z,33.29
2023-08-23T12:20:12.787Z,33.30
2023-08-23T12:22:47.591Z,33.18
2023-08-23T12:25:17.754Z,33.54
2023-08-23T12:27:48.137Z,32.82
2023-08-23T12:30:19.284Z,33.05
2023-08-23T12:32:48.194Z,32.74
2023-08-23T12:35:16.961Z,33.17
2023-08-23T12:37:46.923Z,33.31
2023-08-23T12:40:17.094Z,33.70
2023-08-23T12:42:46.256Z,33.64
2023-08-23T12:45:15.794Z,33.37
2023-08-23T12:47:44.784Z,33.21
2023-08-23T12:50:14.353Z,33.11
2023-08-23T12:52:43.576Z,33.42
2023-08-23T12:55:13.072Z,33.30
2023-08-23T12:57:42.230Z,33.46
2023-08-23T13:00:29.146Z,33.81
2023-08-23T13:02:45.164Z,33.00
2023-08-23T13:05:14.756Z,33.21
2023-08-23T13:07:43.218Z,33.74
2023-08-23T13:10:14.120Z,33.84
2023-08-23T13:12:44.979Z,33.97
2023-08-23T13:15:15.090Z,34.22
2023-08-23T13:17:44.782Z,33.74
2023-08-23T13:20:13.688Z,33.46
2023-08-23T13:22:42.430Z,33.27
2023-08-23T13:25:12.385Z,33.32
2023-08-23T13:27:41.416Z,33.68
2023-08-23T13:30:12.119Z,33.85
2023-08-23T13:32:41.372Z,34.04
2023-08-23T13:35:10.659Z,33.90
2023-08-23T13:37:39.312Z,34.02
2023-08-23T13:40:12.476Z,34.29
2023-08-23T13:42:42.875Z,34.14
2023-08-23T13:45:12.557Z,34.22
2023-08-23T13:47:41.679Z,34.46
2023-08-23T13:50:12.267Z,34.55
2023-08-23T13:52:41.074Z,34.22
2023-08-23T13:55:10.974Z,34.29
2023-08-23T13:57:39.884Z,34.21
2023-08-23T14:00:09.780Z,34.73
2023-08-23T14:02:38.443Z,34.40
2023-08-23T14:05:08.888Z,34.36
2023-08-23T14:07:38.930Z,34.37
2023-08-23T14:10:09.204Z,34.06
2023-08-23T14:12:37.899Z,34.01
2023-08-23T14:15:08.223Z,34.08
2023-08-23T14:17:36.826Z,33.51
2023-08-23T14:20:09.009Z,33.24
2023-08-23T14:22:38.831Z,33.48
2023-08-23T14:25:09.367Z,33.49
2023-08-23T14:27:39.016Z,33.62
2023-08-23T14:30:10.794Z,34.27
2023-08-23T14:32:39.623Z,34.60
2023-08-23T14:35:10.898Z,34.93
2023-08-23T14:37:39.962Z,35.18
2023-08-23T14:40:12.522Z,35.05
2023-08-23T14:42:43.481Z,35.28
2023-08-23T14:45:13.419Z,35.14
2023-08-23T14:47:42.358Z,35.13
2023-08-23T14:50:11.436Z,35.35
2023-08-23T14:52:41.611Z,35.43
2023-08-23T14:55:13.573Z,35.40
2023-08-23T14:57:44.371Z,35.36
2023-08-23T15:00:15.189Z,35.50
2023-08-23T15:02:44.433Z,35.51
2023-08-23T15:05:13.664Z,35.49
2023-08-23T15:07:43.230Z,35.48
2023-08-23T15:10:12.555Z,35.11
2023-08-23T15:12:45.906Z,35.54
2023-08-23T15:15:17.162Z,35.36
2023-08-23T15:17:47.315Z,35.48
2023-08-23T15:20:16.965Z,35.40
2023-08-23T15:22:47.293Z,35.53
2023-08-23T15:25:16.405Z,35.38
2023-08-23T15:27:45.502Z,35.46
2023-08-23T15:30:14.730Z,35.59
2023-08-23T15:32:45.366Z,35.86
2023-08-23T15:35:14.219Z,36.09
2023-08-23T15:37:43.961Z,36.00
2023-08-23T15:40:13.041Z,36.09
2023-08-23T15:42:42.826Z,36.20
2023-08-23T15:45:12.233Z,36.57
2023-08-23T15:47:41.218Z,36.45
2023-08-23T15:50:11.110Z,36.62
2023-08-23T15:52:40.064Z,36.91
2023-08-23T15:55:10.889Z,37.11
2023-08-23T15:57:41.455Z,36.71
2023-08-23T16:00:12.838Z,37.01
2023-08-23T16:02:41.928Z,37.40
2023-08-23T16:05:11.805Z,37.15
2023-08-23T16:07:42.354Z,37.21
2023-08-23T16:10:12.797Z,37.18
2023-08-23T16:12:41.676Z,37.15
2023-08-23T16:15:12.429Z,37.14
2023-08-23T16:17:42.368Z,37.00
2023-08-23T16:20:11.987Z,36.95
2023-08-23T16:22:41.435Z,37.15
2023-08-23T16:25:11.675Z,37.52
2023-08-23T16:27:40.303Z,37.63
2023-08-23T16:30:11.017Z,37.39
2023-08-23T16:32:40.824Z,37.31
2023-08-23T16:35:11.092Z,37.23
2023-08-23T16:37:41.840Z,37.41
2023-08-23T16:40:12.522Z,37.40
2023-08-23T16:42:45.685Z,37.60
2023-08-23T16:45:15.924Z,37.98
2023-08-23T16:47:45.491Z,38.05
2023-08-23T16:50:14.373Z,37.74
2023-08-23T16:52:43.339Z,37.69
2023-08-23T16:55:12.969Z,37.97
2023-08-23T16:57:42.448Z,37.94
2023-08-23T17:00:14.305Z,37.92
2023-08-23T17:02:45.640Z,37.81
2023-08-23T17:05:15.396Z,37.94
2023-08-23T17:07:44.618Z,38.18
2023-08-23T17:10:14.121Z,38.30
2023-08-23T17:12:43.332Z,38.38
2023-08-23T17:15:13.883Z,38.65
2023-08-23T17:17:43.676Z,38.69
2023-08-23T17:20:14.457Z,38.75
2023-08-23T17:22:44.480Z,38.67
2023-08-23T17:25:14.347Z,39.00
2023-08-23T17:27:44.036Z,39.05
2023-08-23T17:30:14.555Z,39.22
2023-08-23T17:32:44.634Z,39.36
2023-08-23T17:35:13.893Z,39.56
2023-08-23T17:37:44.152Z,39.46
2023-08-23T17:40:14.822Z,39.36
2023-08-23T17:42:45.102Z,39.30
2023-08-23T17:45:14.984Z,39.51
2023-08-23T17:47:43.892Z,39.50
2023-08-23T17:50:13.163Z,39.47
2023-08-23T17:52:42.363Z,39.65
2023-08-23T17:55:13.218Z,39.76
2023-08-23T17:57:42.578Z,39.97
2023-08-23T18:00:21.394Z,39.96
2023-08-23T18:02:53.501Z,40.02
2023-08-23T18:05:22.954Z,40.20
2023-08-23T18:07:52.880Z,40.24
2023-08-23T18:10:21.329Z,40.44
2023-08-23T18:12:51.918Z,40.28
2023-08-23T18:15:21.577Z,40.29
2023-08-23T18:17:51.634Z,40.41
2023-08-23T18:20:20.925Z,40.39
2023-08-23T18:22:50.428Z,40.20
2023-08-23T18:25:20.269Z,40.29
2023-08-23T18:27:50.726Z,40.26
2023-08-23T18:30:20.575Z,40.59
2023-08-23T18:32:50.057Z,40.60
2023-08-23T18:35:21.093Z,40.68
2023-08-23T18:37:50.272Z,40.80
2023-08-23T18:40:20.990Z,40.99
2023-08-23T18:42:50.989Z,41.27
2023-08-23T18:45:20.848Z,41.29
2023-08-23T18:47:50.401Z,41.69
2023-08-23T18:50:20.269Z,42.02
2023-08-23T18:52:51.525Z,42.26
2023-08-23T18:55:20.810Z,42.76
2023-08-23T18:57:49.637Z,43.19
2023-08-23T19:00:19.618Z,43.38
2023-08-23T19:02:48.615Z,43.76
2023-08-23T19:05:19.853Z,43.99
2023-08-23T19:07:50.613Z,44.22
2023-08-23T19:10:19.888Z,44.65
2023-08-23T19:12:48.908Z,44.97
2023-08-23T19:15:18.917Z,45.62
2023-08-23T19:17:49.655Z,45.57
2023-08-23T19:20:18.332Z,45.46
2023-08-23T19:22:47.949Z,45.64
2023-08-23T19:25:18.070Z,45.44
2023-08-23T19:27:49.096Z,45.34
2023-08-23T19:30:21.611Z,44.82
2023-08-23T19:32:51.784Z,44.75
2023-08-23T19:35:20.879Z,44.77
2023-08-23T19:37:51.516Z,44.67
2023-08-23T19:40:20.650Z,44.71
2023-08-23T19:42:50.445Z,44.88
2023-08-23T19:45:19.768Z,44.75
2023-08-23T19:47:49.842Z,44.42
2023-08-23T19:50:19.873Z,44.22
2023-08-23T19:52:50.162Z,44.58
2023-08-23T19:55:19.939Z,44.63
2023-08-23T19:57:49.009Z,45.00
2023-08-23T20:00:18.942Z,45.33
2023-08-23T20:02:49.943Z,45.65
2023-08-23T20:05:20.182Z,46.09
2023-08-23T20:07:49.801Z,46.27
2023-08-23T20:10:19.922Z,46.50
2023-08-23T20:12:49.053Z,46.84
2023-08-23T20:15:18.475Z,47.19
2023-08-23T20:17:47.819Z,47.63
2023-08-23T20:20:18.075Z,47.99
2023-08-23T20:22:47.354Z,48.52
2023-08-23T20:25:18.202Z,48.90
2023-08-23T20:27:48.596Z,49.12
2023-08-23T20:30:18.303Z,49.49
2023-08-23T20:32:49.656Z,49.55
2023-08-23T20:35:18.625Z,49.88
2023-08-23T20:37:50.742Z,50.04
2023-08-23T20:40:21.581Z,50.40
2023-08-23T20:42:51.146Z,50.58
2023-08-23T20:45:22.943Z,50.79
2023-08-23T20:47:52.453Z,50.93
2023-08-23T20:50:22.579Z,51.09
2023-08-23T20:52:52.893Z,51.26
2023-08-23T20:55:22.000Z,51.62
2023-08-23T20:57:53.552Z,51.83
2023-08-23T21:00:23.540Z,52.04
2023-08-23T21:02:53.247Z,52.39
2023-08-23T21:05:22.722Z,52.67
2023-08-23T21:07:52.835Z,52.81
2023-08-23T21:10:22.896Z,52.95
2023-08-23T21:12:52.334Z,53.00
2023-08-23T21:15:22.150Z,53.32
2023-08-23T21:17:52.163Z,53.70
2023-08-23T21:20:21.458Z,54.03
2023-08-23T21:22:50.570Z,54.21
2023-08-23T21:25:20.635Z,54.36
2023-08-23T21:27:50.638Z,54.51
2023-08-23T21:30:20.511Z,54.68
2023-08-23T21:32:49.476Z,54.48
2023-08-23T21:35:18.473Z,54.54
2023-08-23T21:37:48.364Z,54.78
2023-08-23T21:40:18.505Z,54.83
2023-08-23T21:42:48.627Z,55.01
2023-08-23T21:45:18.865Z,55.26
2023-08-23T21:47:47.490Z,55.58
2023-08-23T21:50:16.956Z,55.75
2023-08-23T21:52:46.113Z,56.02
2023-08-23T21:55:16.031Z,56.19
2023-08-23T21:57:45.575Z,56.20
2023-08-23T22:00:15.804Z,56.58
2023-08-23T22:02:44.550Z,56.91
2023-08-23T22:05:14.681Z,56.85
2023-08-23T22:07:44.591Z,56.63
2023-08-23T22:10:13.777Z,56.71
2023-08-23T22:12:42.661Z,56.92
2023-08-23T22:15:12.728Z,57.19
2023-08-23T22:17:43.050Z,57.35
2023-08-23T22:20:15.285Z,57.56
2023-08-23T22:22:44.239Z,57.72
2023-08-23T22:25:13.932Z,57.78
2023-08-23T22:27:42.908Z,57.88
2023-08-23T22:30:12.769Z,57.93
2023-08-23T22:32:42.313Z,57.96
2023-08-23T22:35:12.656Z,58.15
2023-08-23T22:37:42.259Z,58.29
2023-08-23T22:40:12.462Z,58.40
2023-08-23T22:42:41.707Z,58.38
2023-08-23T22:45:11.390Z,58.19
2023-08-23T22:47:40.982Z,58.14
2023-08-23T22:50:10.960Z,58.30
2023-08-23T22:52:39.481Z,58.52
2023-08-23T22:55:10.534Z,58.60
2023-08-23T22:57:41.955Z,58.69
2023-08-23T23:00:11.813Z,58.81
2023-08-23T23:02:44.052Z,58.95
2023-08-23T23:05:14.295Z,59.06
2023-08-23T23:07:44.913Z,59.24
2023-08-23T23:10:15.128Z,59.44
2023-08-23T23:12:44.204Z,59.62
2023-08-23T23:15:16.665Z,59.59
2023-08-23T23:17:47.653Z,59.73
2023-08-23T23:20:17.493Z,59.88
2023-08-23T23:22:47.129Z,59.94
2023-08-23T23:25:16.211Z,59.90
2023-08-23T23:27:45.682Z,60.00
2023-08-23T23:30:16.698Z,60.24
2023-08-23T23:32:46.764Z,60.65
2023-08-23T23:35:16.546Z,60.89
2023-08-23T23:37:46.766Z,61.05
2023-08-23T23:40:16.238Z,61.18
2023-08-23T23:42:45.233Z,61.46
2023-08-23T23:45:15.739Z,61.60
2023-08-23T23:47:44.732Z,61.49
2023-08-23T23:50:13.308Z,61.40
2023-08-23T23:52:42.629Z,61.41
2023-08-23T23:55:11.364Z,61.45
2023-08-23T23:57:40.219Z,61.52
